Flight Track Log - Related Links

Times and Time Zones

All times are in EST time to prevent confusion due to time zone crossing. See the CCA967 flight status page for this flight to view local times or setup timezone preferences in your user account.

Time Position Orientation Groundspeed Altitude Reporting Facility
EST Latitude Longitude Course Direction KTS MPH feet Rate Location/Type
Thu 02:30:00 PM 31.4113 121.5235 320° Northwest  Level Estimated
Thu 02:31:00 PM 31.5007 121.4335 319° Northwest  Level Estimated
Thu 02:32:00 PM 31.5900 121.3433 319° Northwest  Level Estimated
Thu 02:33:00 PM 31.6793 121.2530 319° Northwest  Level Estimated
Thu 02:34:00 PM 31.7684 121.1625 319° Northwest  Level Estimated
Thu 02:35:00 PM 31.8576 121.0718 319° Northwest  Level Estimated
Thu 02:36:00 PM 31.9466 120.9810 319° Northwest  Level Estimated
Thu 02:36:06 PM 31.0964 121.5641 319° Northwest 317 365 16,200  Level FlightAware ADS-B (ZSSS / SHA)
Thu 02:36:36 PM 31.1251 121.5281 313° West 321 369 17,200 2,129 Climbing FlightAware ADS-B (ZSSS / SHA)
Thu 02:37:08 PM 31.1613 121.4826 313° West 324 373 18,400 2,000 Climbing FlightAware ADS-B (ZSSS / SHA)
Thu 02:37:39 PM 31.1924 121.4434 313° West 329 379 19,300 1,300 Climbing FlightAware ADS-B (ZSSS / SHA)
Thu 02:38:08 PM 31.2234 121.4043 313° West 330 380 19,700 1,300 Climbing FlightAware ADS-B (ZSSS / SHA)
Thu 02:38:39 PM 31.2587 121.3598 313° West 354 407 20,600 2,032 Climbing FlightAware ADS-B (ZSSS / SHA)
Thu 02:39:10 PM 31.2917 121.3183 313° West 346 398 21,800 2,100 Climbing FlightAware ADS-B (ZSSS / SHA)
Thu 02:39:39 PM 31.3232 121.2782 313° West 347 399 22,700 1,862 Climbing FlightAware ADS-B (ZSSS / SHA)
Thu 02:40:08 PM 31.3554 121.2374 313° West 346 398 23,600 1,770 Climbing FlightAware ADS-B (ZSSS / SHA)
Thu 02:40:40 PM 31.3895 121.1940 313° West 346 398 24,500 1,500 Climbing FlightAware ADS-B (ZSSS / SHA)
Thu 02:41:08 PM 31.4151 121.1622 313° West 347 399 25,100 1,444 Climbing FlightAware ADS-B (ZSSS / SHA)
Thu 02:41:34 PM 31.4502 121.1268 319° Northwest 352 405 25,800 1,400 Climbing FlightAware ADS-B (ZSSS / SHA)
Thu 02:42:08 PM 31.5010 121.0892 328° Northwest 365 420 26,500 1,108 Climbing FlightAware ADS-B (ZSSS / SHA)
Thu 02:42:39 PM 31.5469 121.0646 335° Northwest 371 427 27,000 29 Climbing FlightAware ADS-B (ZSSS / SHA)
Thu 02:45:00 PM 31.7561 120.8517 319° Northwest  Level Estimated
Thu 02:46:00 PM 31.8451 120.7608 319° Northwest  Level Estimated
Thu 02:47:00 PM 31.9340 120.6697 319° Northwest  Level Estimated
Thu 02:48:00 PM 32.0228 120.5784 319° Northwest  Level Estimated
Thu 02:49:00 PM 32.1115 120.4870 319° Northwest  Level Estimated
Thu 02:50:00 PM 32.2002 120.3954 319° Northwest  Level Estimated
Thu 02:51:00 PM 32.2889 120.3036 319° Northwest  Level Estimated
Thu 02:52:00 PM 32.3774 120.2116 319° Northwest  Level Estimated
Thu 02:53:00 PM 32.4659 120.1195 319° Northwest  Level Estimated
Thu 02:54:00 PM 32.5543 120.0272 319° Northwest  Level Estimated
Thu 02:55:00 PM 32.6427 119.9346 319° Northwest  Level Estimated
Thu 02:56:00 PM 32.7309 119.8419 319° Northwest  Level Estimated
Thu 02:57:00 PM 32.8192 119.7491 319° Northwest  Level Estimated
Thu 02:58:00 PM 32.9073 119.6560 318° Northwest  Level Estimated
Thu 02:59:00 PM 32.9954 119.5628 318° Northwest  Level Estimated
Thu 03:00:00 PM 33.0834 119.4693 318° Northwest  Level Estimated
Thu 03:01:00 PM 33.1713 119.3757 318° Northwest  Level Estimated
Thu 03:02:00 PM 33.2592 119.2819 318° Northwest  Level Estimated
Thu 03:03:00 PM 33.3470 119.1879 318° Northwest  Level Estimated
Thu 03:04:00 PM 33.4347 119.0937 318° Northwest  Level Estimated
Thu 03:05:00 PM 33.5224 118.9993 318° Northwest  Level Estimated
Thu 03:06:00 PM 33.6100 118.9047 318° Northwest  Level Estimated
Thu 03:07:00 PM 33.6975 118.8100 318° Northwest  Level Estimated
Thu 03:08:00 PM 33.7849 118.7150 318° Northwest  Level Estimated
Thu 03:09:00 PM 33.8723 118.6199 318° Northwest  Level Estimated
Thu 03:10:00 PM 33.9596 118.5245 318° Northwest  Level Estimated
Thu 03:11:00 PM 34.0468 118.4290 318° Northwest  Level Estimated
Thu 03:12:00 PM 34.1340 118.3332 318° Northwest  Level Estimated
Thu 03:13:00 PM 34.2210 118.2373 318° Northwest  Level Estimated
Thu 03:14:00 PM 34.3080 118.1412 318° Northwest  Level Estimated
Thu 03:15:00 PM 34.3950 118.0448 318° Northwest  Level Estimated
Thu 03:16:00 PM 34.4818 117.9483 318° Northwest  Level Estimated
Thu 03:17:00 PM 34.5686 117.8516 317° Northwest  Level Estimated
Thu 03:18:00 PM 34.6553 117.7546 317° Northwest  Level Estimated
Thu 03:19:00 PM 34.7419 117.6575 317° Northwest  Level Estimated
Thu 03:20:00 PM 34.8284 117.5602 317° Northwest  Level Estimated
Thu 03:21:00 PM 34.9149 117.4626 317° Northwest  Level Estimated
Thu 03:22:00 PM 35.0013 117.3649 317° Northwest  Level Estimated
Thu 03:23:00 PM 35.0876 117.2669 317° Northwest  Level Estimated
Thu 03:24:00 PM 35.1738 117.1687 317° Northwest  Level Estimated
Thu 03:25:00 PM 35.2599 117.0704 317° Northwest  Level Estimated
Thu 03:26:00 PM 35.3460 116.9718 317° Northwest  Level Estimated
Thu 03:27:00 PM 35.4320 116.8730 317° Northwest  Level Estimated
Thu 03:28:00 PM 35.5179 116.7739 317° Northwest  Level Estimated
Thu 03:29:00 PM 35.6037 116.6747 317° Northwest  Level Estimated
Thu 03:30:00 PM 35.6894 116.5753 317° Northwest  Level Estimated
Thu 03:31:00 PM 35.7751 116.4756 317° Northwest  Level Estimated
Thu 03:32:00 PM 35.8607 116.3758 317° Northwest  Level Estimated
Thu 03:33:00 PM 35.9462 116.2757 317° Northwest  Level Estimated
Thu 03:34:00 PM 36.0316 116.1754 316° Northwest  Level Estimated
Thu 03:35:00 PM 36.1169 116.0749 316° Northwest  Level Estimated
Thu 03:36:00 PM 36.2022 115.9742 316° Northwest  Level Estimated
Thu 03:37:00 PM 36.2873 115.8732 316° Northwest  Level Estimated
Thu 03:38:00 PM 36.3724 115.7721 316° Northwest  Level Estimated
Thu 03:39:00 PM 36.4574 115.6707 316° Northwest  Level Estimated
Thu 03:40:00 PM 36.5423 115.5691 316° Northwest  Level Estimated
Thu 03:41:00 PM 36.6271 115.4672 316° Northwest  Level Estimated
Thu 03:42:00 PM 36.7118 115.3652 316° Northwest  Level Estimated
Thu 03:43:00 PM 36.7965 115.2629 316° Northwest  Level Estimated
Thu 03:44:00 PM 36.8810 115.1604 316° Northwest  Level Estimated
Thu 03:45:00 PM 36.9655 115.0576 316° Northwest  Level Estimated
Thu 03:46:00 PM 37.0499 114.9547 316° Northwest  Level Estimated
Thu 03:47:00 PM 37.1342 114.8514 316° Northwest  Level Estimated
Thu 03:48:00 PM 37.2184 114.7480 316° Northwest  Level Estimated
Thu 03:49:00 PM 37.3025 114.6444 316° Northwest  Level Estimated
Thu 03:50:00 PM 37.3865 114.5405 316° Northwest  Level Estimated
Thu 03:51:00 PM 37.4704 114.4363 315° West  Level Estimated
Thu 03:52:00 PM 37.5543 114.3320 315° West  Level Estimated
Thu 03:53:00 PM 37.6380 114.2274 315° West  Level Estimated
Thu 03:54:00 PM 37.7217 114.1226 315° West  Level Estimated
Thu 03:55:00 PM 37.8052 114.0175 315° West  Level Estimated
Thu 03:56:00 PM 37.8887 113.9122 315° West  Level Estimated
Thu 03:57:00 PM 37.9720 113.8067 315° West  Level Estimated
Thu 03:58:00 PM 38.0553 113.7009 315° West  Level Estimated
Thu 03:59:00 PM 38.1385 113.5949 315° West  Level Estimated
Thu 04:00:00 PM 38.2216 113.4886 315° West  Level Estimated
Thu 04:01:00 PM 38.3046 113.3821 315° West  Level Estimated
Thu 04:02:00 PM 38.3875 113.2754 315° West  Level Estimated
Thu 04:03:00 PM 38.4703 113.1684 315° West  Level Estimated
Thu 04:04:00 PM 38.5530 113.0611 315° West  Level Estimated
Thu 04:05:00 PM 38.6356 112.9536 315° West  Level Estimated
Thu 04:06:00 PM 38.7181 112.8459 314° West  Level Estimated
Thu 04:07:00 PM 38.8005 112.7379 314° West  Level Estimated
Thu 04:08:00 PM 38.8828 112.6297 314° West  Level Estimated
Thu 04:09:00 PM 38.9650 112.5212 314° West  Level Estimated
Thu 04:10:00 PM 39.0471 112.4125 314° West  Level Estimated
Thu 04:11:00 PM 39.1291 112.3035 314° West  Level Estimated
Thu 04:12:00 PM 39.2110 112.1942 314° West  Level Estimated
Thu 04:13:00 PM 39.2928 112.0847 314° West  Level Estimated
Thu 04:14:00 PM 39.3745 111.9750 314° West  Level Estimated
Thu 04:15:00 PM 39.4561 111.8650 314° West  Level Estimated
Thu 04:16:00 PM 39.5376 111.7547 314° West  Level Estimated
Thu 04:17:00 PM 39.6189 111.6442 314° West  Level Estimated
Thu 04:18:00 PM 39.7002 111.5334 314° West  Level Estimated
Thu 04:19:00 PM 39.7814 111.4223 314° West  Level Estimated
Thu 04:20:00 PM 39.8624 111.3110 314° West  Level Estimated
Thu 04:21:00 PM 39.9434 111.1994 313° West  Level Estimated
Thu 04:22:00 PM 40.0243 111.0876 313° West  Level Estimated
Thu 04:23:00 PM 40.1050 110.9755 313° West  Level Estimated
Thu 04:24:00 PM 40.1856 110.8631 313° West  Level Estimated
Thu 04:25:00 PM 40.2662 110.7505 313° West  Level Estimated
Thu 04:26:00 PM 40.3466 110.6376 313° West  Level Estimated
Thu 04:27:00 PM 40.4269 110.5244 313° West  Level Estimated
Thu 04:28:00 PM 40.5071 110.4110 313° West  Level Estimated
Thu 04:29:00 PM 40.5872 110.2972 313° West  Level Estimated
Thu 04:30:00 PM 40.6672 110.1833 313° West  Level Estimated
Thu 04:31:00 PM 40.7470 110.0690 313° West  Level Estimated
Thu 04:32:00 PM 40.8268 109.9545 313° West  Level Estimated
Thu 04:33:00 PM 40.9064 109.8396 313° West  Level Estimated
Thu 04:34:00 PM 40.9859 109.7245 312° West  Level Estimated
Thu 04:35:00 PM 41.0653 109.6092 312° West  Level Estimated
Thu 04:36:00 PM 41.1446 109.4935 312° West  Level Estimated
Thu 04:37:00 PM 41.2238 109.3776 312° West  Level Estimated
Thu 04:38:00 PM 41.3029 109.2614 312° West  Level Estimated
Thu 04:39:00 PM 41.3818 109.1449 312° West  Level Estimated
Thu 04:40:00 PM 41.4606 109.0281 312° West  Level Estimated
Thu 04:41:00 PM 41.5393 108.9111 312° West  Level Estimated
Thu 04:42:00 PM 41.6179 108.7937 312° West  Level Estimated
Thu 04:43:00 PM 41.6964 108.6761 312° West  Level Estimated
Thu 04:44:00 PM 41.7747 108.5582 312° West  Level Estimated
Thu 04:45:00 PM 41.8530 108.4400 312° West  Level Estimated
Thu 04:46:00 PM 41.9311 108.3215 312° West  Level Estimated
Thu 04:47:00 PM 42.0090 108.2027 311° West  Level Estimated
Thu 04:48:00 PM 42.0869 108.0836 311° West  Level Estimated
Thu 04:49:00 PM 42.1646 107.9643 311° West  Level Estimated
Thu 04:50:00 PM 42.2423 107.8446 311° West  Level Estimated
Thu 04:51:00 PM 42.3198 107.7247 311° West  Level Estimated
Thu 04:52:00 PM 42.3971 107.6044 311° West  Level Estimated
Thu 04:53:00 PM 42.4743 107.4839 311° West  Level Estimated
Thu 04:54:00 PM 42.5515 107.3630 311° West  Level Estimated
Thu 04:55:00 PM 42.6284 107.2419 311° West  Level Estimated
Thu 04:56:00 PM 42.7053 107.1205 311° West  Level Estimated
Thu 04:57:00 PM 42.7820 106.9987 311° West  Level Estimated
Thu 04:58:00 PM 42.8586 106.8767 311° West  Level Estimated
Thu 04:59:00 PM 42.9351 106.7543 311° West  Level Estimated
Thu 05:00:00 PM 43.0114 106.6317 310° West  Level Estimated
Thu 05:01:00 PM 43.0876 106.5087 310° West  Level Estimated
Thu 05:02:00 PM 43.1637 106.3854 310° West  Level Estimated
Thu 05:03:00 PM 43.2396 106.2619 310° West  Level Estimated
Thu 05:04:00 PM 43.3154 106.1380 310° West  Level Estimated
Thu 05:05:00 PM 43.3911 106.0138 310° West  Level Estimated
Thu 05:06:00 PM 43.4667 105.8893 310° West  Level Estimated
Thu 05:07:00 PM 43.5421 105.7645 310° West  Level Estimated
Thu 05:08:00 PM 43.6173 105.6394 310° West  Level Estimated
Thu 05:09:00 PM 43.6925 105.5139 310° West  Level Estimated
Thu 05:10:00 PM 43.7674 105.3882 310° West  Level Estimated
Thu 05:11:00 PM 43.8423 105.2621 309° West  Level Estimated
Thu 05:12:00 PM 43.9170 105.1357 309° West  Level Estimated
Thu 05:13:00 PM 43.9916 105.0090 309° West  Level Estimated
Thu 05:14:00 PM 44.0660 104.8820 309° West  Level Estimated
Thu 05:15:00 PM 44.1403 104.7547 309° West  Level Estimated
Thu 05:16:00 PM 44.2145 104.6270 309° West  Level Estimated
Thu 05:17:00 PM 44.2885 104.4990 309° West  Level Estimated
Thu 05:18:00 PM 44.3623 104.3708 309° West  Level Estimated
Thu 05:19:00 PM 44.4361 104.2421 309° West  Level Estimated
Thu 05:20:00 PM 44.5096 104.1132 309° West  Level Estimated
Thu 05:21:00 PM 44.5831 103.9839 309° West  Level Estimated
Thu 05:22:00 PM 44.6563 103.8543 309° West  Level Estimated
Thu 05:23:00 PM 44.7295 103.7244 308° West  Level Estimated
Thu 05:24:00 PM 44.8025 103.5941 308° West  Level Estimated
Thu 05:25:00 PM 44.8753 103.4635 308° West  Level Estimated
Thu 05:26:00 PM 44.9480 103.3326 308° West  Level Estimated
Thu 05:27:00 PM 45.0205 103.2014 308° West  Level Estimated
Thu 05:28:00 PM 45.0929 103.0698 308° West  Level Estimated
Thu 05:29:00 PM 45.1652 102.9379 308° West  Level Estimated
Thu 05:30:00 PM 45.2373 102.8056 308° West  Level Estimated
Thu 05:31:00 PM 45.3092 102.6730 308° West  Level Estimated
Thu 05:32:00 PM 45.3810 102.5401 308° West  Level Estimated
Thu 05:33:00 PM 45.4526 102.4068 307° West  Level Estimated
Thu 05:34:00 PM 45.5241 102.2732 307° West  Level Estimated
Thu 05:35:00 PM 45.5954 102.1393 307° West  Level Estimated
Thu 05:36:00 PM 45.6666 102.0050 307° West  Level Estimated
Thu 05:37:00 PM 45.7376 101.8704 307° West  Level Estimated
Thu 05:38:00 PM 45.8084 101.7354 307° West  Level Estimated
Thu 05:39:00 PM 45.8791 101.6001 307° West  Level Estimated
Thu 05:40:00 PM 45.9496 101.4645 307° West  Level Estimated
Thu 05:41:00 PM 46.0200 101.3285 307° West  Level Estimated
Thu 05:42:00 PM 46.0902 101.1921 307° West  Level Estimated
Thu 05:43:00 PM 46.1602 101.0555 307° West  Level Estimated
Thu 05:44:00 PM 46.2301 100.9184 306° West  Level Estimated
Thu 05:45:00 PM 46.2998 100.7810 306° West  Level Estimated
Thu 05:46:00 PM 46.3693 100.6433 306° West  Level Estimated
Thu 05:47:00 PM 46.4387 100.5052 306° West  Level Estimated
Thu 05:48:00 PM 46.5079 100.3668 306° West  Level Estimated
Thu 05:49:00 PM 46.5770 100.2280 306° West  Level Estimated
Thu 05:50:00 PM 46.6459 100.0888 306° West  Level Estimated
Thu 05:51:00 PM 46.7146 99.9493 306° West  Level Estimated
Thu 05:52:00 PM 46.7831 99.8095 306° West  Level Estimated
Thu 05:53:00 PM 46.8515 99.6693 306° West  Level Estimated
Thu 05:54:00 PM 46.9197 99.5287 305° West  Level Estimated
Thu 05:55:00 PM 46.9877 99.3878 305° West  Level Estimated
Thu 05:56:00 PM 47.0555 99.2465 305° West  Level Estimated
Thu 05:57:00 PM 47.1232 99.1048 305° West  Level Estimated
Thu 05:58:00 PM 47.1907 98.9628 305° West  Level Estimated
Thu 05:59:00 PM 47.2581 98.8205 305° West  Level Estimated
Thu 06:00:00 PM 47.3252 98.6777 305° West  Level Estimated
Thu 06:01:00 PM 47.3922 98.5347 305° West  Level Estimated
Thu 06:02:00 PM 47.4590 98.3912 305° West  Level Estimated
Thu 06:03:00 PM 47.5256 98.2474 304° West  Level Estimated
Thu 06:04:00 PM 47.5920 98.1032 304° West  Level Estimated
Thu 06:05:00 PM 47.6583 97.9587 304° West  Level Estimated
Thu 06:06:00 PM 47.7243 97.8137 304° West  Level Estimated
Thu 06:07:00 PM 47.7902 97.6685 304° West  Level Estimated
Thu 06:08:00 PM 47.8559 97.5228 304° West  Level Estimated
Thu 06:09:00 PM 47.9214 97.3768 304° West  Level Estimated
Thu 06:10:00 PM 47.9868 97.2304 304° West  Level Estimated
Thu 06:11:00 PM 48.0519 97.0836 304° West  Level Estimated
Thu 06:12:00 PM 48.1169 96.9365 304° West  Level Estimated
Thu 06:13:00 PM 48.1816 96.7890 303° West  Level Estimated
Thu 06:14:00 PM 48.2462 96.6411 303° West  Level Estimated
Thu 06:15:00 PM 48.3106 96.4929 303° West  Level Estimated
Thu 06:16:00 PM 48.3748 96.3443 303° West  Level Estimated
Thu 06:17:00 PM 48.4388 96.1953 303° West  Level Estimated
Thu 06:18:00 PM 48.5027 96.0459 303° West  Level Estimated
Thu 06:19:00 PM 48.5663 95.8961 303° West  Level Estimated
Thu 06:20:00 PM 48.6297 95.7460 303° West  Level Estimated
Thu 06:21:00 PM 48.6929 95.5955 303° West  Level Estimated
Thu 06:22:00 PM 48.7560 95.4446 302° West  Level Estimated
Thu 06:23:00 PM 48.8188 95.2934 302° West  Level Estimated
Thu 06:24:00 PM 48.8815 95.1417 302° West  Level Estimated
Thu 06:25:00 PM 48.9439 94.9897 302° West  Level Estimated
Thu 06:26:00 PM 49.0061 94.8373 302° West  Level Estimated
Thu 06:27:00 PM 49.0682 94.6845 302° West  Level Estimated
Thu 06:28:00 PM 49.1300 94.5314 302° West  Level Estimated
Thu 06:29:00 PM 49.1916 94.3778 302° West  Level Estimated
Thu 06:30:00 PM 49.2531 94.2239 301° West  Level Estimated
Thu 06:31:00 PM 49.3143 94.0696 301° West  Level Estimated
Thu 06:32:00 PM 49.3753 93.9149 301° West  Level Estimated
Thu 06:33:00 PM 49.4361 93.7598 301° West  Level Estimated
Thu 06:34:00 PM 49.4967 93.6044 301° West  Level Estimated
Thu 06:35:00 PM 49.5571 93.4485 301° West  Level Estimated
Thu 06:36:00 PM 49.6173 93.2923 301° West  Level Estimated
Thu 06:37:00 PM 49.6773 93.1357 301° West  Level Estimated
Thu 06:38:00 PM 49.7370 92.9787 301° West  Level Estimated
Thu 06:39:00 PM 49.7966 92.8213 300° West  Level Estimated
Thu 06:40:00 PM 49.8559 92.6635 300° West  Level Estimated
Thu 06:41:00 PM 49.9150 92.5053 300° West  Level Estimated
Thu 06:42:00 PM 49.9739 92.3468 300° West  Level Estimated
Thu 06:43:00 PM 50.0326 92.1878 300° West  Level Estimated
Thu 06:44:00 PM 50.0911 92.0285 300° West  Level Estimated
Thu 06:45:00 PM 50.1493 91.8688 300° West  Level Estimated
Thu 06:46:00 PM 50.2074 91.7087 300° West  Level Estimated
Thu 06:47:00 PM 50.2652 91.5482 299° West  Level Estimated
Thu 06:48:00 PM 50.3228 91.3873 299° West  Level Estimated
Thu 06:49:00 PM 50.3801 91.2260 299° West  Level Estimated
Thu 06:50:00 PM 50.4373 91.0644 299° West  Level Estimated
Thu 06:51:00 PM 50.4942 90.9023 299° West  Level Estimated
Thu 06:52:00 PM 50.5509 90.7399 299° West  Level Estimated
Thu 06:53:00 PM 50.6074 90.5771 299° West  Level Estimated
Thu 06:54:00 PM 50.6636 90.4138 299° West  Level Estimated
Thu 06:55:00 PM 50.7196 90.2502 298° West  Level Estimated
Thu 06:56:00 PM 50.7754 90.0862 298° West  Level Estimated
Thu 06:57:00 PM 50.8310 89.9218 298° West  Level Estimated
Thu 06:58:00 PM 50.8863 89.7570 298° West  Level Estimated
Thu 06:59:00 PM 50.9414 89.5919 298° West  Level Estimated
Thu 07:00:00 PM 50.9962 89.4263 298° West  Level Estimated
Thu 07:01:00 PM 51.0508 89.2603 298° West  Level Estimated
Thu 07:02:00 PM 51.1052 89.0940 298° West  Level Estimated
Thu 07:03:00 PM 51.1594 88.9272 297° West  Level Estimated
Thu 07:04:00 PM 51.2133 88.7601 297° West  Level Estimated
Thu 07:05:00 PM 51.2670 88.5926 297° West  Level Estimated
Thu 07:06:00 PM 51.3204 88.4247 297° West  Level Estimated
Thu 07:07:00 PM 51.3736 88.2563 297° West  Level Estimated
Thu 07:08:00 PM 51.4265 88.0876 297° West  Level Estimated
Thu 07:09:00 PM 51.4792 87.9186 297° West  Level Estimated
Thu 07:10:00 PM 51.5317 87.7491 297° West  Level Estimated
Thu 07:11:00 PM 51.5839 87.5792 296° West  Level Estimated
Thu 07:12:00 PM 51.6359 87.4090 296° West  Level Estimated
Thu 07:13:00 PM 51.6876 87.2383 296° West  Level Estimated
Thu 07:14:00 PM 51.7391 87.0673 296° West  Level Estimated
Thu 07:15:00 PM 51.7903 86.8958 296° West  Level Estimated
Thu 07:16:00 PM 51.8413 86.7240 296° West  Level Estimated
Thu 07:17:00 PM 51.8920 86.5518 296° West  Level Estimated
Thu 07:18:00 PM 51.9425 86.3792 295° West  Level Estimated
Thu 07:19:00 PM 51.9927 86.2062 295° West  Level Estimated
Thu 07:20:00 PM 52.0427 86.0329 295° West  Level Estimated
Thu 07:21:00 PM 52.0924 85.8591 295° West  Level Estimated
Thu 07:22:00 PM 52.1419 85.6850 295° West  Level Estimated
Thu 07:23:00 PM 52.1911 85.5105 295° West  Level Estimated
Thu 07:24:00 PM 52.2400 85.3355 295° West  Level Estimated
Thu 07:25:00 PM 52.2887 85.1602 294° West  Level Estimated
Thu 07:26:00 PM 52.3372 84.9846 294° West  Level Estimated
Thu 07:27:00 PM 52.3853 84.8085 294° West  Level Estimated
Thu 07:28:00 PM 52.4332 84.6320 294° West  Level Estimated
Thu 07:29:00 PM 52.4809 84.4552 294° West  Level Estimated
Thu 07:30:00 PM 52.5282 84.2780 294° West  Level Estimated
Thu 07:31:00 PM 52.5753 84.1004 294° West  Level Estimated
Thu 07:32:00 PM 52.6222 83.9224 293° West  Level Estimated
Thu 07:33:00 PM 52.6688 83.7440 293° West  Level Estimated
Thu 07:34:00 PM 52.7151 83.5653 293° West  Level Estimated
Thu 07:35:00 PM 52.7611 83.3862 293° West  Level Estimated
Thu 07:36:00 PM 52.8069 83.2067 293° West  Level Estimated
Thu 07:37:00 PM 52.8524 83.0268 293° West  Level Estimated
Thu 07:38:00 PM 52.8976 82.8466 293° West  Level Estimated
Thu 07:39:00 PM 52.9425 82.6659 293° West  Level Estimated
Thu 07:40:00 PM 52.9872 82.4849 292° West  Level Estimated
Thu 07:41:00 PM 53.0316 82.3036 292° West  Level Estimated
Thu 07:42:00 PM 53.0757 82.1218 292° West  Level Estimated
Thu 07:43:00 PM 53.1196 81.9397 292° West  Level Estimated
Thu 07:44:00 PM 53.1632 81.7572 292° West  Level Estimated
Thu 07:45:00 PM 53.2065 81.5744 292° West  Level Estimated
Thu 07:46:00 PM 53.2495 81.3911 291° West  Level Estimated
Thu 07:47:00 PM 53.2922 81.2075 291° West  Level Estimated
Thu 07:48:00 PM 53.3346 81.0236 291° West  Level Estimated
Thu 07:49:00 PM 53.3768 80.8393 291° West  Level Estimated
Thu 07:50:00 PM 53.4187 80.6546 291° West  Level Estimated
Thu 07:51:00 PM 53.4603 80.4695 291° West  Level Estimated
Thu 07:52:00 PM 53.5016 80.2841 291° West  Level Estimated
Thu 07:53:00 PM 53.5426 80.0983 290° West  Level Estimated
Thu 07:54:00 PM 53.5833 79.9122 290° West  Level Estimated
Thu 07:55:00 PM 53.6237 79.7257 290° West  Level Estimated
Thu 07:56:00 PM 53.6639 79.5389 290° West  Level Estimated
Thu 07:57:00 PM 53.7038 79.3517 290° West  Level Estimated
Thu 07:58:00 PM 53.7433 79.1641 290° West  Level Estimated
Thu 07:59:00 PM 53.7826 78.9762 290° West  Level Estimated
Thu 08:00:00 PM 53.8216 78.7879 289° West  Level Estimated
Thu 08:01:00 PM 53.8603 78.5993 289° West  Level Estimated
Thu 08:02:00 PM 53.8987 78.4104 289° West  Level Estimated
Thu 08:03:00 PM 53.9367 78.2211 289° West  Level Estimated
Thu 08:04:00 PM 53.9745 78.0314 289° West  Level Estimated
Thu 08:05:00 PM 54.0120 77.8414 289° West  Level Estimated
Thu 08:06:00 PM 54.0492 77.6511 288° West  Level Estimated
Thu 08:07:00 PM 54.0861 77.4604 288° West  Level Estimated
Thu 08:08:00 PM 54.1227 77.2694 288° West  Level Estimated
Thu 08:09:00 PM 54.1590 77.0781 288° West  Level Estimated
Thu 08:10:00 PM 54.1950 76.8864 288° West  Level Estimated
Thu 08:11:00 PM 54.2306 76.6944 288° West  Level Estimated
Thu 08:12:00 PM 54.2660 76.5021 288° West  Level Estimated
Thu 08:13:00 PM 54.3011 76.3094 287° West  Level Estimated
Thu 08:14:00 PM 54.3358 76.1164 287° West  Level Estimated
Thu 08:15:00 PM 54.3703 75.9231 287° West  Level Estimated
Thu 08:16:00 PM 54.4044 75.7294 287° West  Level Estimated
Thu 08:17:00 PM 54.4383 75.5354 287° West  Level Estimated
Thu 08:18:00 PM 54.4718 75.3411 287° West  Level Estimated
Thu 08:19:00 PM 54.5050 75.1466 286° West  Level Estimated
Thu 08:20:00 PM 54.5379 74.9516 286° West  Level Estimated
Thu 08:21:00 PM 54.5704 74.7564 286° West  Level Estimated
Thu 08:22:00 PM 54.6027 74.5609 286° West  Level Estimated
Thu 08:23:00 PM 54.6347 74.3650 286° West  Level Estimated
Thu 08:24:00 PM 54.6663 74.1689 286° West  Level Estimated
Thu 08:25:00 PM 54.6976 73.9724 285° West  Level Estimated
Thu 08:26:00 PM 54.7286 73.7756 285° West  Level Estimated
Thu 08:27:00 PM 54.7593 73.5786 285° West  Level Estimated
Thu 08:28:00 PM 54.7896 73.3812 285° West  Level Estimated
Thu 08:29:00 PM 54.8197 73.1835 285° West  Level Estimated
Thu 08:30:00 PM 54.8494 72.9856 285° West  Level Estimated
Thu 08:31:00 PM 54.8788 72.7874 285° West  Level Estimated
Thu 08:32:00 PM 54.9079 72.5888 284° West  Level Estimated
Thu 08:33:00 PM 54.9366 72.3900 284° West  Level Estimated
Thu 08:34:00 PM 54.9650 72.1909 284° West  Level Estimated
Thu 08:35:00 PM 54.9931 71.9915 284° West  Level Estimated
Thu 08:36:00 PM 55.0209 71.7919 284° West  Level Estimated
Thu 08:37:00 PM 55.0483 71.5920 284° West  Level Estimated
Thu 08:38:00 PM 55.0754 71.3918 283° West  Level Estimated
Thu 08:39:00 PM 55.1022 71.1913 283° West  Level Estimated
Thu 08:40:00 PM 55.1287 70.9905 283° West  Level Estimated
Thu 08:41:00 PM 55.1548 70.7896 283° West  Level Estimated
Thu 08:42:00 PM 55.1806 70.5883 283° West  Level Estimated
Thu 08:43:00 PM 55.2060 70.3868 283° West  Level Estimated
Thu 08:44:00 PM 55.2312 70.1850 282° West  Level Estimated
Thu 08:45:00 PM 55.2560 69.9830 282° West  Level Estimated
Thu 08:46:00 PM 55.2804 69.7807 282° West  Level Estimated
Thu 08:47:00 PM 55.3046 69.5781 282° West  Level Estimated
Thu 08:48:00 PM 55.3284 69.3754 282° West  Level Estimated
Thu 08:49:00 PM 55.3518 69.1723 282° West  Level Estimated
Thu 08:50:00 PM 55.3749 68.9691 281° West  Level Estimated
Thu 08:51:00 PM 55.3977 68.7656 281° West  Level Estimated
Thu 08:52:00 PM 55.4202 68.5619 281° West  Level Estimated
Thu 08:53:00 PM 55.4422 68.3579 281° West  Level Estimated
Thu 08:54:00 PM 55.4640 68.1537 281° West  Level Estimated
Thu 08:55:00 PM 55.4854 67.9493 281° West  Level Estimated
Thu 08:56:00 PM 55.5065 67.7447 280° West  Level Estimated
Thu 08:57:00 PM 55.5272 67.5398 280° West  Level Estimated
Thu 08:58:00 PM 55.5476 67.3348 280° West  Level Estimated
Thu 08:59:00 PM 55.5677 67.1295 280° West  Level Estimated
Thu 09:00:00 PM 55.5874 66.9240 280° West  Level Estimated
Thu 09:01:00 PM 55.6068 66.7184 280° West  Level Estimated
Thu 09:02:00 PM 55.6258 66.5125 279° West  Level Estimated
Thu 09:03:00 PM 55.6445 66.3064 279° West  Level Estimated
Thu 09:04:00 PM 55.6628 66.1001 279° West  Level Estimated
Thu 09:05:00 PM 55.6808 65.8936 279° West  Level Estimated
Thu 09:06:00 PM 55.6985 65.6870 279° West  Level Estimated
Thu 09:07:00 PM 55.7158 65.4801 279° West  Level Estimated
Thu 09:08:00 PM 55.7327 65.2731 278° West  Level Estimated
Thu 09:09:00 PM 55.7493 65.0659 278° West  Level Estimated
Thu 09:10:00 PM 55.7655 64.8586 278° West  Level Estimated
Thu 09:11:00 PM 55.7814 64.6510 278° West  Level Estimated
Thu 09:12:00 PM 55.7970 64.4433 278° West  Level Estimated
Thu 09:13:00 PM 55.8122 64.2354 277° West  Level Estimated
Thu 09:14:00 PM 55.8270 64.0274 277° West  Level Estimated
Thu 09:15:00 PM 55.8415 63.8192 277° West  Level Estimated
Thu 09:16:00 PM 55.8557 63.6108 277° West  Level Estimated
Thu 09:17:00 PM 55.8695 63.4023 277° West  Level Estimated
Thu 09:18:00 PM 55.8829 63.1937 277° West  Level Estimated
Thu 09:19:00 PM 55.8960 62.9849 276° West  Level Estimated
Thu 09:20:00 PM 55.9087 62.7760 276° West  Level Estimated
Thu 09:21:00 PM 55.9211 62.5669 276° West  Level Estimated
Thu 09:22:00 PM 55.9332 62.3577 276° West  Level Estimated
Thu 09:23:00 PM 55.9448 62.1484 276° West  Level Estimated
Thu 09:23:39 PM 57.7447 70.8997 276° West 436 502 38,000  Level FlightAware ADS-B (USTR / TJM)
Thu 09:23:58 PM 57.7561 70.8299 287° West 437 503 38,000  Level FlightAware ADS-B (USTR / TJM)
Thu 09:24:00 PM 55.9562 61.9389 276° West  Level Estimated
Thu 09:24:10 PM 57.7634 70.7852 287° West 438 504 38,000  Level FlightAware ADS-B (USTR / TJM)
Thu 09:24:39 PM 57.7799 70.6835 287° West 438 504 38,000  Level FlightAware ADS-B (USTR / TJM)
Thu 09:24:40 PM 57.7803 70.6805 286° West 439 505 38,000  Level FlightAware ADS-B (USTR / TJM)
Thu 09:25:10 PM 57.7980 70.5708 287° West 438 504 38,000  Level FlightAware ADS-B (USTR / TJM)
Thu 09:25:19 PM 57.8026 70.5418 287° West 437 503 38,000  Level FlightAware ADS-B (USTR / TJM)
Thu 09:25:39 PM 57.8146 70.4674 287° West 437 503 38,000  Level FlightAware ADS-B (USTR / TJM)
Thu 09:25:59 PM 57.8264 70.3937 287° West 438 504 38,000  Level FlightAware ADS-B (USTR / TJM)
Thu 09:26:11 PM 57.8326 70.3538 287° West 438 504 38,000  Level FlightAware ADS-B (USTR / TJM)
Thu 09:26:39 PM 57.8486 70.2525 287° West 437 503 38,000  Level FlightAware ADS-B (USTR / TJM)
Thu 09:26:41 PM 57.8504 70.2410 287° West 436 502 38,000  Level FlightAware ADS-B (USTR / TJM)
Thu 09:27:10 PM 57.8670 70.1354 286° West 436 502 38,000  Level FlightAware ADS-B (USTR / TJM)
Thu 09:27:18 PM 57.8714 70.1072 286° West 436 502 38,000  Level FlightAware ADS-B (USTR / TJM)
Thu 09:27:39 PM 57.8836 70.0291 286° West 436 502 38,000  Level FlightAware ADS-B (USTR / TJM)
Thu 09:27:59 PM 57.8943 69.9597 286° West 435 501 38,000  Level FlightAware ADS-B (USTR / TJM)
Thu 09:28:10 PM 57.9011 69.9164 286° West 435 501 38,000  Level FlightAware ADS-B (USTR / TJM)
Thu 09:28:38 PM 57.9158 69.8210 286° West 435 501 38,000  Level FlightAware ADS-B (USTR / TJM)
Thu 09:28:40 PM 57.9169 69.8138 287° West 435 501 38,000  Level FlightAware ADS-B (USTR / TJM)
Thu 09:29:08 PM 57.9328 69.7104 286° West 435 501 38,000  Level FlightAware ADS-B (USTR / TJM)
Thu 09:29:17 PM 57.9378 69.6779 286° West 435 501 38,000  Level FlightAware ADS-B (USTR / TJM)
Thu 09:29:40 PM 57.9508 69.5924 286° West 435 501 38,000  Level FlightAware ADS-B (USTR / TJM)
Thu 09:29:59 PM 57.9607 69.5272 286° West 434 499 38,000  Level FlightAware ADS-B (USTR / TJM)
Thu 09:30:09 PM 57.9665 69.4882 286° West 435 501 38,000  Level FlightAware ADS-B (USTR / TJM)
Thu 09:30:39 PM 57.9825 69.3816 286° West 435 501 38,000  Level FlightAware ADS-B (USTR / TJM)
Thu 09:30:40 PM 57.9834 69.3757 286° West 435 501 38,000  Level FlightAware ADS-B (USTR / TJM)
Thu 09:31:10 PM 57.9995 69.2677 286° West 435 501 38,000  Level FlightAware ADS-B (USTR / TJM)
Thu 09:31:18 PM 58.0042 69.2365 286° West 435 501 38,000  Level FlightAware ADS-B (USTR / TJM)
Thu 09:31:39 PM 58.0155 69.1588 285° West 434 499 38,000  Level FlightAware ADS-B (USTR / TJM)
Thu 09:31:58 PM 58.0255 69.0914 286° West 435 501 38,000  Level FlightAware ADS-B (USTR / TJM)
Thu 09:32:11 PM 58.0317 69.0492 286° West 434 499 38,000  Level FlightAware ADS-B (USTR / TJM)
Thu 09:32:38 PM 58.0465 68.9483 286° West 434 499 38,000  Level FlightAware ADS-B (USTR / TJM)
Thu 09:32:40 PM 58.0478 68.9389 285° West 434 499 38,000  Level FlightAware ADS-B (USTR / TJM)
Thu 09:33:10 PM 58.0636 68.8300 285° West 434 499 38,000  Level FlightAware ADS-B (USTR / TJM)
Thu 09:33:19 PM 58.0681 68.7987 285° West 434 499 38,000  Level FlightAware ADS-B (USTR / TJM)
Thu 09:33:40 PM 58.0792 68.7224 285° West 434 499 38,000  Level FlightAware ADS-B (USTR / TJM)
Thu 09:33:59 PM 58.0892 68.6532 285° West 434 499 38,000  Level FlightAware ADS-B (USTR / TJM)
Thu 09:34:10 PM 58.0949 68.6132 285° West 434 499 38,000  Level FlightAware ADS-B (USTR / TJM)
Thu 09:34:39 PM 58.1096 68.5096 285° West 433 498 38,000  Level FlightAware ADS-B (USTR / TJM)
Thu 09:34:40 PM 58.1101 68.5061 285° West 433 498 38,000  Level FlightAware ADS-B (USTR / TJM)
Thu 09:35:11 PM 58.1253 68.3982 285° West 433 498 38,000  Level FlightAware ADS-B (USTR / TJM)
Thu 09:35:19 PM 58.1306 68.3611 285° West 433 498 38,000  Level FlightAware ADS-B (USTR / TJM)
Thu 09:35:40 PM 58.1427 68.2864 287° West 430 495 38,000  Level FlightAware ADS-B (USTR / TJM)
Thu 09:35:59 PM 58.1558 68.2224 291° West 428 493 38,000  Level FlightAware ADS-B (USTR / TJM)
Thu 09:36:10 PM 58.1650 68.1838 294° West 427 491 38,000  Level FlightAware ADS-B (USTR / TJM)
Thu 09:36:39 PM 58.1902 68.0873 296° West 426 490 38,000  Level FlightAware ADS-B (USTR / TJM)
Thu 09:36:40 PM 58.1916 68.0819 296° West 426 490 38,000  Level FlightAware ADS-B (USTR / TJM)
Thu 09:37:10 PM 58.2167 67.9845 296° West 427 491 38,000  Level FlightAware ADS-B (USTR / TJM)
Thu 09:37:19 PM 58.2249 67.9524 296° West 426 490 38,000  Level FlightAware ADS-B (USTR / TJM)
Thu 09:37:40 PM 58.2431 67.8805 296° West 427 491 38,000  Level FlightAware ADS-B (USTR / TJM)
Thu 09:37:59 PM 58.2584 67.8199 296° West 427 491 38,000  Level FlightAware ADS-B (USTR / TJM)
Thu 09:38:10 PM 58.2682 67.7810 296° West 428 493 38,000  Level FlightAware ADS-B (USTR / TJM)
Thu 09:38:39 PM 58.2919 67.6867 296° West 427 491 38,000  Level FlightAware ADS-B (USTR / TJM)
Thu 09:38:40 PM 58.2927 67.6833 296° West 427 491 38,000  Level FlightAware ADS-B (USTR / TJM)
Thu 09:39:10 PM 58.3190 67.5774 295° West 427 491 38,000  Level FlightAware ADS-B (USTR / TJM)
Thu 09:39:19 PM 58.3263 67.5485 295° West 426 490 38,000  Level FlightAware ADS-B (USTR / TJM)
Thu 09:39:40 PM 58.3433 67.4797 295° West 426 490 38,000  Level FlightAware ADS-B (USTR / TJM)
Thu 09:39:58 PM 58.3587 67.4177 295° West 426 490 38,000  Level FlightAware ADS-B (USTR / TJM)
Thu 09:40:11 PM 58.3689 67.3765 295° West 426 490 38,000  Level FlightAware ADS-B (USTR / TJM)
Thu 09:40:38 PM 58.3919 67.2832 295° West 426 490 38,000  Level FlightAware ADS-B (USTR / TJM)
Thu 09:40:40 PM 58.3937 67.2757 295° West 426 490 38,000  Level FlightAware ADS-B (USTR / TJM)
Thu 09:41:11 PM 58.4191 67.1721 295° West 426 490 38,000  Level FlightAware ADS-B (USTR / TJM)
Thu 09:41:18 PM 58.4258 67.1443 295° West 426 490 38,000  Level FlightAware ADS-B (USTR / TJM)
Thu 09:41:40 PM 58.4435 67.0717 295° West 426 490 38,000  Level FlightAware ADS-B (USTR / TJM)
Thu 09:41:59 PM 58.4588 67.0086 295° West 425 489 38,000  Level FlightAware ADS-B (USTR / TJM)
Thu 09:42:11 PM 58.4682 66.9700 295° West 425 489 38,000  Level FlightAware ADS-B (USTR / TJM)
Thu 09:42:39 PM 58.4913 66.8744 295° West 425 489 38,000  Level FlightAware ADS-B (USTR / TJM)
Thu 09:42:40 PM 58.4927 66.8690 295° West 425 489 38,000  Level FlightAware ADS-B (USTR / TJM)
Thu 09:43:11 PM 58.5179 66.7644 295° West 426 490 38,000  Level FlightAware ADS-B (USTR / TJM)
Thu 09:43:19 PM 58.5247 66.7365 295° West 426 490 38,000  Level FlightAware ADS-B (USTR / TJM)
Thu 09:43:40 PM 58.5421 66.6636 295° West 426 490 38,000  Level FlightAware ADS-B (USTR / TJM)
Thu 09:43:58 PM 58.5564 66.6035 294° West 426 490 38,000  Level FlightAware ADS-B (USTR / TJM)
Thu 09:44:10 PM 58.5664 66.5611 294° West 426 490 38,000  Level FlightAware ADS-B (USTR / TJM)
Thu 09:44:38 PM 58.5887 66.4666 294° West 427 491 38,000  Level FlightAware ADS-B (USTR / TJM)
Thu 09:44:40 PM 58.5905 66.4591 294° West 426 490 38,000  Level FlightAware ADS-B (USTR / TJM)
Thu 09:45:10 PM 58.6151 66.3551 294° West 426 490 38,000  Level FlightAware ADS-B (USTR / TJM)
Thu 09:45:19 PM 58.6218 66.3263 294° West 425 489 38,000  Level FlightAware ADS-B (USTR / TJM)
Thu 09:45:40 PM 58.6390 66.2531 294° West 425 489 38,000  Level FlightAware ADS-B (USTR / TJM)
Thu 09:45:59 PM 58.6538 66.1901 294° West 425 489 38,000  Level FlightAware ADS-B (USTR / TJM)
Thu 09:46:10 PM 58.6626 66.1524 294° West 425 489 38,000  Level FlightAware ADS-B (USTR / TJM)
Thu 09:46:39 PM 58.6847 66.0572 294° West 425 489 38,000  Level FlightAware ADS-B (USTR / TJM)
Thu 09:46:40 PM 58.6865 66.0496 294° West 425 489 38,000  Level FlightAware ADS-B (USTR / TJM)
Thu 09:47:10 PM 58.7111 65.9436 294° West 423 487 38,000  Level FlightAware ADS-B (USTR / TJM)
Thu 09:47:17 PM 58.7158 65.9230 294° West 423 487 38,000  Level FlightAware ADS-B (USTR / TJM)
Thu 09:47:40 PM 58.7346 65.8417 294° West 422 486 38,000  Level FlightAware ADS-B (USTR / TJM)
Thu 09:47:59 PM 58.7489 65.7795 294° West 422 486 38,000  Level FlightAware ADS-B (USTR / TJM)
Thu 09:48:10 PM 58.7575 65.7419 294° West 423 487 38,000  Level FlightAware ADS-B (USTR / TJM)
Thu 09:48:39 PM 58.7799 65.6439 294° West 423 487 38,000  Level FlightAware ADS-B (USTR / TJM)
Thu 09:48:40 PM 58.7812 65.6384 294° West 423 487 38,000  Level FlightAware ADS-B (USTR / TJM)
Thu 09:49:10 PM 58.8046 65.5353 294° West 423 487 38,000  Level FlightAware ADS-B (USTR / TJM)
Thu 09:49:16 PM 58.8095 65.5133 293° West 424 488 38,000  Level FlightAware ADS-B (USTR / TJM)
Thu 09:49:40 PM 58.8282 65.4305 294° West 424 488 38,000  Level FlightAware ADS-B (USTR / TJM)
Thu 09:49:59 PM 58.8426 65.3662 293° West 425 489 38,000  Level FlightAware ADS-B (USTR / TJM)
Thu 09:50:10 PM 58.8512 65.3282 294° West 425 489 38,000  Level FlightAware ADS-B (USTR / TJM)
Thu 09:50:39 PM 58.8733 65.2290 293° West 426 490 38,000  Level FlightAware ADS-B (USTR / TJM)
Thu 09:50:40 PM 58.8740 65.2262 292° West 426 490 38,000  Level FlightAware ADS-B (USTR / TJM)
Thu 09:51:09 PM 58.8975 65.1206 293° West 425 489 38,000  Level FlightAware ADS-B (USTR / TJM)
Thu 09:51:16 PM 58.9025 65.0984 293° West 425 489 38,000  Level FlightAware ADS-B (USTR / TJM)
Thu 09:51:40 PM 58.9205 65.0170 293° West 425 489 38,000  Level FlightAware ADS-B (USTR / TJM)
Thu 09:51:59 PM 58.9355 64.9490 293° West 424 488 38,000  Level FlightAware ADS-B (USTR / TJM)
Thu 09:52:10 PM 58.9438 64.9115 293° West 424 488 38,000  Level FlightAware ADS-B (USTR / TJM)
Thu 09:52:33 PM 58.9604 64.8359 293° West 423 487 38,000  Level FlightAware ADS-B (USTR / TJM)
Thu 09:53:53 PM 59.0079 64.6182 293° West 422 486 38,000  Level FlightAware ADS-B (USTR / TJM)
Thu 09:54:25 PM 59.0331 64.5018 293° West 420 483 38,000  Level FlightAware ADS-B (USTR / TJM)
Thu 09:55:24 PM 59.0885 64.2433 293° West 421 484 38,000  Level FlightAware ADS-B (USTR / TJM)
Thu 09:55:45 PM 59.0991 64.1938 293° West 422 486 38,000  Level FlightAware ADS-B (USTR / TJM)
Thu 09:56:25 PM 59.1350 64.0245 293° West 424 488 38,000  Level FlightAware ADS-B (USTR / TJM)
Thu 09:56:40 PM 59.1450 63.9775 292° West 425 489 38,000  Level FlightAware ADS-B (USTR / TJM)
Thu 09:56:55 PM 59.1571 63.9196 292° West 426 490 38,000  Level FlightAware ADS-B (USTR / TJM)
Thu 09:57:17 PM 59.1731 63.8439 292° West 426 490 38,000  Level FlightAware ADS-B (USTR / TJM)
Thu 09:57:26 PM 59.1796 63.8128 292° West 427 491 38,000  Level FlightAware ADS-B (USTR / TJM)
Thu 09:57:52 PM 59.1851 63.7865 292° West 430 495 38,000  Level FlightAware ADS-B (USTR / TJM)
Thu 09:58:00 PM 59.2051 63.6894 292° West 429 494 38,000  Level FlightAware ADS-B (USTR / TJM)
Thu 09:58:24 PM 59.2228 63.6035 292° West 431 496 38,000  Level FlightAware ADS-B (USTR / TJM)
Thu 09:58:41 PM 59.2349 63.5446 292° West 431 496 38,000  Level FlightAware ADS-B (USTR / TJM)
Thu 09:58:55 PM 59.2464 63.4885 292° West 431 496 38,000  Level FlightAware ADS-B (USTR / TJM)
Thu 09:59:21 PM 59.2649 63.3977 292° West 432 497 38,000  Level FlightAware ADS-B (USTR / TJM)
Thu 09:59:25 PM 59.2673 63.3854 292° West 432 497 38,000  Level FlightAware ADS-B (USTR / TJM)
Thu 09:59:55 PM 59.2877 63.2851 292° West 432 497 38,000  Level FlightAware ADS-B (USTR / TJM)
Thu 10:00:01 PM 59.2937 63.2554 292° West 432 497 38,000  Level FlightAware ADS-B (USTR / TJM)
Thu 10:00:25 PM 59.3104 63.1729 292° West 432 497 38,000  Level FlightAware ADS-B (USTR / TJM)
Thu 10:00:41 PM 59.3232 63.1093 292° West 431 496 38,000  Level FlightAware ADS-B (USTR / TJM)
Thu 10:00:55 PM 59.3331 63.0596 291° West 430 495 38,000  Level FlightAware ADS-B (USTR / TJM)
Thu 10:01:17 PM 59.3484 62.9825 291° West 428 493 38,000  Level FlightAware ADS-B (USTR / TJM)
Thu 10:01:25 PM 59.3545 62.9524 291° West 428 493 38,000  Level FlightAware ADS-B (USTR / TJM)
Thu 10:01:53 PM 59.3744 62.8515 291° West 424 488 38,000  Level FlightAware ADS-B (USTR / TJM)
Thu 10:02:30 PM 59.3943 62.7174 286° West 428 493 38,000  Level FlightAware ADS-B (USTR / TJM)
Thu 10:02:34 PM 59.3963 62.6984 282° West 429 494 38,000  Level FlightAware ADS-B (USTR / TJM)
Thu 10:02:45 PM 59.3998 62.6595 280° West 430 495 38,000  Level FlightAware ADS-B (USTR / TJM)
Thu 10:03:27 PM 59.4130 62.4997 279° West 428 493 38,000  Level FlightAware ADS-B (USTR / TJM)
Thu 10:04:08 PM 59.4257 62.3464 279° West 427 491 38,000  Level FlightAware ADS-B (USTR / TJM)
Thu 10:04:15 PM 59.4283 62.3159 279° West 427 491 38,000  Level FlightAware ADS-B (USTR / TJM)
Thu 10:04:36 PM 59.4311 62.2808 279° West 427 491 38,000  Level FlightAware ADS-B (USTR / TJM)
Thu 10:04:53 PM 59.4400 62.1704 279° West 427 491 38,000  Level FlightAware ADS-B (USTR / TJM)
Thu 10:05:10 PM 59.4453 62.1034 279° West 426 490 38,000  Level FlightAware ADS-B (USTR / TJM)
Thu 10:05:33 PM 59.4518 62.0205 279° West 426 490 38,000  Level FlightAware ADS-B (USTR / TJM)
Thu 10:05:40 PM 59.4518 62.0205 279° West 425 489 38,000  Level FlightAware ADS-B (USTR / TJM)
Thu 10:06:01 PM 59.4560 61.9665 279° West 425 489 38,000  Level FlightAware ADS-B (USTR / TJM)
Thu 10:06:35 PM 59.4705 61.7816 279° West 426 490 38,000  Level FlightAware ADS-B (USTR / TJM)
Thu 10:07:10 PM 59.4788 61.6722 279° West 428 493 38,000  Level FlightAware ADS-B (USTR / TJM)
Thu 10:07:40 PM 59.4894 61.5328 279° West 427 491 38,000  Level FlightAware ADS-B (USTR / TJM)
Thu 10:08:10 PM 59.4980 61.4173 278° West 427 491 38,000  Level FlightAware ADS-B (USTR / TJM)
Thu 10:08:38 PM 59.5056 61.3140 278° West 426 490 38,000  Level FlightAware ADS-B (USTR / TJM)
Thu 10:09:10 PM 59.5145 61.1909 278° West 427 491 38,000  Level FlightAware ADS-B (USTR / TJM)
Thu 10:09:41 PM 59.5232 61.0693 278° West 427 491 38,000  Level FlightAware ADS-B (USTR / TJM)
Thu 10:10:10 PM 59.5311 60.9585 278° West 426 490 38,000  Level FlightAware ADS-B (USTR / TJM)
Thu 10:10:40 PM 59.5391 60.8439 278° West 426 490 38,000  Level FlightAware ADS-B (USTR / TJM)
Thu 10:11:10 PM 59.5470 60.7300 278° West 425 489 38,000  Level FlightAware ADS-B (USTR / TJM)
Thu 10:11:40 PM 59.5582 60.6126 281° West 420 483 38,000  Level FlightAware ADS-B (USTR / TJM)
Thu 10:12:14 PM 59.5766 60.4987 288° West 417 480 38,000  Level FlightAware ADS-B (USTR / TJM)
Thu 10:12:45 PM 59.6020 60.3888 295° West 412 474 38,000  Level FlightAware ADS-B (USTR / TJM)
Thu 10:13:15 PM 59.6284 60.2908 298° West 414 476 38,000  Level FlightAware ADS-B (USTR / TJM)
Thu 10:13:45 PM 59.6562 60.1861 298° West 415 478 38,000  Level FlightAware ADS-B (USTR / TJM)
Thu 10:14:14 PM 59.6789 60.0989 297° West 415 478 38,000  Level FlightAware ADS-B (USTR / TJM)
Thu 10:14:44 PM 59.6970 60.0288 297° West 416 479 38,000  Level FlightAware ADS-B (USTR / TJM)
Thu 10:17:00 PM 59.6878 59.4999 268° West  Level Estimated
Thu 10:18:00 PM 59.6830 59.2667 268° West  Level Estimated
Thu 10:19:00 PM 59.6778 59.0335 268° West  Level Estimated
Thu 10:20:00 PM 59.6722 58.8004 267° West  Level Estimated
Thu 10:21:00 PM 59.6662 58.5674 267° West  Level Estimated
Thu 10:22:00 PM 59.6598 58.3345 267° West  Level Estimated
Thu 10:23:00 PM 59.6530 58.1017 267° West  Level Estimated
Thu 10:24:00 PM 59.6457 57.8690 267° West  Level Estimated
Thu 10:25:00 PM 59.6381 57.6364 266° West  Level Estimated
Thu 10:26:00 PM 59.6300 57.4039 266° West  Level Estimated
Thu 10:27:00 PM 59.6215 57.1715 266° West  Level Estimated
Thu 10:28:00 PM 59.6126 56.9392 266° West  Level Estimated
Thu 10:29:00 PM 59.6033 56.7070 266° West  Level Estimated
Thu 10:30:00 PM 59.5936 56.4750 265° West  Level Estimated
Thu 10:31:00 PM 59.5835 56.2431 265° West  Level Estimated
Thu 10:32:00 PM 59.5730 56.0114 265° West  Level Estimated
Thu 10:33:00 PM 59.5620 55.7798 265° West  Level Estimated
Thu 10:34:00 PM 59.5507 55.5484 265° West  Level Estimated
Thu 10:35:00 PM 59.5389 55.3171 264° West  Level Estimated
Thu 10:36:00 PM 59.5267 55.0859 264° West  Level Estimated
Thu 10:37:00 PM 59.5142 54.8550 264° West  Level Estimated
Thu 10:38:00 PM 59.5012 54.6242 264° West  Level Estimated
Thu 10:39:00 PM 59.4878 54.3936 264° West  Level Estimated
Thu 10:40:00 PM 59.4740 54.1632 263° West  Level Estimated
Thu 10:41:00 PM 59.4598 53.9330 263° West  Level Estimated
Thu 10:42:00 PM 59.4452 53.7030 263° West  Level Estimated
Thu 10:43:00 PM 59.4302 53.4732 263° West  Level Estimated
Thu 10:44:00 PM 59.4148 53.2436 263° West  Level Estimated
Thu 10:45:00 PM 59.3990 53.0142 262° West  Level Estimated
Thu 10:46:00 PM 59.3828 52.7850 262° West  Level Estimated
Thu 10:47:00 PM 59.3662 52.5560 262° West  Level Estimated
Thu 10:48:00 PM 59.3492 52.3273 262° West  Level Estimated
Thu 10:49:00 PM 59.3318 52.0988 262° West  Level Estimated
Thu 10:50:00 PM 59.3140 51.8705 261° West  Level Estimated
Thu 10:51:00 PM 59.2957 51.6425 261° West  Level Estimated
Thu 10:52:00 PM 59.2771 51.4147 261° West  Level Estimated
Thu 10:53:00 PM 59.2581 51.1872 261° West  Level Estimated
Thu 10:54:00 PM 59.2387 50.9599 261° West  Level Estimated
Thu 10:55:00 PM 59.2189 50.7329 260° West  Level Estimated
Thu 10:56:00 PM 59.1987 50.5062 260° West  Level Estimated
Thu 10:57:00 PM 59.1781 50.2797 260° West  Level Estimated
Thu 10:58:00 PM 59.1572 50.0535 260° West  Level Estimated
Thu 10:59:00 PM 59.1358 49.8276 260° West  Level Estimated
Thu 11:00:00 PM 59.1140 49.6020 259° West  Level Estimated
Thu 11:01:00 PM 59.0919 49.3766 259° West  Level Estimated
Thu 11:02:00 PM 59.0693 49.1516 259° West  Level Estimated
Thu 11:03:00 PM 59.0464 48.9268 259° West  Level Estimated
Thu 11:04:00 PM 59.0230 48.7024 259° West  Level Estimated
Thu 11:05:00 PM 58.9993 48.4782 258° West  Level Estimated
Thu 11:06:00 PM 58.9752 48.2544 258° West  Level Estimated
Thu 11:07:00 PM 58.9507 48.0309 258° West  Level Estimated
Thu 11:08:00 PM 58.9259 47.8077 258° West  Level Estimated
Thu 11:09:00 PM 58.9006 47.5848 258° West  Level Estimated
Thu 11:10:00 PM 58.8750 47.3623 258° West  Level Estimated
Thu 11:11:00 PM 58.8489 47.1400 257° West  Level Estimated
Thu 11:12:00 PM 58.8226 46.9182 257° West  Level Estimated
Thu 11:13:00 PM 58.7958 46.6966 257° West  Level Estimated
Thu 11:14:00 PM 58.7686 46.4754 257° West  Level Estimated
Thu 11:15:00 PM 58.7411 46.2546 257° West  Level Estimated
Thu 11:16:00 PM 58.7132 46.0341 256° West  Level Estimated
Thu 11:17:00 PM 58.6849 45.8140 256° West  Level Estimated
Thu 11:18:00 PM 58.6562 45.5942 256° West  Level Estimated
Thu 11:19:00 PM 58.6272 45.3748 256° West  Level Estimated
Thu 11:20:00 PM 58.5978 45.1557 256° West  Level Estimated
Thu 11:21:00 PM 58.5680 44.9370 255° West  Level Estimated
Thu 11:22:00 PM 58.5378 44.7188 255° West  Level Estimated
Thu 11:23:00 PM 58.5073 44.5008 255° West  Level Estimated
Thu 11:24:00 PM 58.4764 44.2833 255° West  Level Estimated
Thu 11:25:00 PM 58.4452 44.0661 255° West  Level Estimated
Thu 11:26:00 PM 58.4135 43.8493 255° West  Level Estimated
Thu 11:27:00 PM 58.3815 43.6330 254° West  Level Estimated
Thu 11:28:00 PM 58.3492 43.4170 254° West  Level Estimated
Thu 11:29:00 PM 58.3165 43.2014 254° West  Level Estimated
Thu 11:30:00 PM 58.2834 42.9862 254° West  Level Estimated
Thu 11:31:00 PM 58.2499 42.7714 254° West  Level Estimated
Thu 11:32:00 PM 58.2161 42.5570 253° West  Level Estimated
Thu 11:33:00 PM 58.1820 42.3430 253° West  Level Estimated
Thu 11:34:00 PM 58.1475 42.1295 253° West  Level Estimated
Thu 11:35:00 PM 58.1126 41.9164 253° West  Level Estimated
Thu 11:36:00 PM 58.0774 41.7036 253° West  Level Estimated
Thu 11:37:00 PM 58.0418 41.4913 253° West  Level Estimated
Thu 11:38:00 PM 58.0059 41.2794 252° West  Level Estimated
Thu 11:39:00 PM 57.9696 41.0680 252° West  Level Estimated
Thu 11:40:00 PM 57.9329 40.8570 252° West  Level Estimated
Thu 11:41:00 PM 57.8959 40.6464 252° West  Level Estimated
Thu 11:42:00 PM 57.8586 40.4362 252° West  Level Estimated
Thu 11:43:00 PM 57.8209 40.2265 251° West  Level Estimated
Thu 11:44:00 PM 57.7829 40.0173 251° West  Level Estimated
Thu 11:45:00 PM 57.7445 39.8084 251° West  Level Estimated
Thu 11:46:00 PM 57.7058 39.6000 251° West  Level Estimated
Thu 11:47:00 PM 57.6668 39.3921 251° West  Level Estimated
Thu 11:48:00 PM 57.6274 39.1846 251° West  Level Estimated
Thu 11:49:00 PM 57.5877 38.9776 250° West  Level Estimated
Thu 11:50:00 PM 57.5476 38.7710 250° West  Level Estimated
Thu 11:51:00 PM 57.5072 38.5648 250° West  Level Estimated
Thu 11:52:00 PM 57.4664 38.3592 250° West  Level Estimated
Thu 11:53:00 PM 57.4254 38.1540 250° West  Level Estimated
Thu 11:54:00 PM 57.3839 37.9492 250° West  Level Estimated
Thu 11:55:00 PM 57.3422 37.7449 249° West  Level Estimated
Thu 11:56:00 PM 57.3001 37.5411 249° West  Level Estimated
Thu 11:57:00 PM 57.2577 37.3378 249° West  Level Estimated
Thu 11:58:00 PM 57.2150 37.1349 249° West  Level Estimated
Thu 11:59:00 PM 57.1720 36.9325 249° West  Level Estimated
Fri 12:00:00 AM 57.1286 36.7305 248° West  Level Estimated
Fri 12:01:00 AM 57.0849 36.5291 248° West  Level Estimated
Fri 12:02:00 AM 57.0409 36.3281 248° West  Level Estimated
Fri 12:03:00 AM 56.9965 36.1276 248° West  Level Estimated
Fri 12:04:00 AM 56.9519 35.9275 248° West  Level Estimated
Fri 12:05:00 AM 56.9069 35.7280 248° West  Level Estimated
Fri 12:06:00 AM 56.8616 35.5289 247° West  Level Estimated
Fri 12:07:00 AM 56.8160 35.3303 247° West  Level Estimated
Fri 12:08:00 AM 56.7700 35.1322 247° West  Level Estimated
Fri 12:09:00 AM 56.7238 34.9346 247° West  Level Estimated
Fri 12:10:00 AM 56.6772 34.7375 247° West  Level Estimated
Fri 12:11:00 AM 56.6304 34.5408 247° West  Level Estimated
Fri 12:12:00 AM 56.5832 34.3447 246° West  Level Estimated
Fri 12:13:00 AM 56.5357 34.1490 246° West  Level Estimated
Fri 12:14:00 AM 56.4879 33.9538 246° West  Level Estimated
Fri 12:15:00 AM 56.4398 33.7592 246° West  Level Estimated
Fri 12:16:00 AM 56.3914 33.5650 246° West  Level Estimated
Fri 12:17:00 AM 56.3427 33.3713 246° West  Level Estimated
Fri 12:18:00 AM 56.2937 33.1781 246° West  Level Estimated
Fri 12:19:00 AM 56.2444 32.9854 245° Southwest  Level Estimated
Fri 12:20:00 AM 56.1948 32.7932 245° Southwest  Level Estimated
Fri 12:21:00 AM 56.1449 32.6015 245° Southwest  Level Estimated
Fri 12:22:00 AM 56.0947 32.4103 245° Southwest  Level Estimated
Fri 12:23:00 AM 56.0443 32.2196 245° Southwest  Level Estimated
Fri 12:23:11 AM 55.5453 31.7971 245° Southwest 442 509 38,000  Level FlightAware ADS-B
Fri 12:24:12 AM 55.4905 31.5999 244° Southwest 441 507 38,000  Level FlightAware ADS-B
Fri 12:25:11 AM 55.4398 31.4199 244° Southwest 440 506 38,000  Level FlightAware ADS-B
Fri 12:26:10 AM 55.3864 31.2315 244° Southwest 437 503 38,000  Level FlightAware ADS-B
Fri 12:27:11 AM 55.3302 31.0347 243° Southwest 434 499 38,000  Level FlightAware ADS-B
Fri 12:28:11 AM 55.2753 30.8441 243° Southwest 434 499 38,000  Level FlightAware ADS-B
Fri 12:29:12 AM 55.2192 30.6582 242° Southwest 434 499 38,000  Level FlightAware ADS-B
Fri 12:30:12 AM 55.1615 30.4688 242° Southwest 434 499 38,000  Level FlightAware ADS-B
Fri 12:31:12 AM 55.1050 30.2858 242° Southwest 437 503 38,000  Level FlightAware ADS-B
Fri 12:32:12 AM 55.0471 30.1065 241° Southwest 439 505 38,000  Level FlightAware ADS-B
Fri 12:32:56 AM 55.0117 29.9968 241° Southwest 435 501 38,000  Level FlightAware ADS-B
Fri 12:34:11 AM 54.9284 29.7405 241° Southwest 433 498 38,000  Level FlightAware ADS-B
Fri 12:35:11 AM 54.8693 29.5605 240° Southwest 433 498 38,000  Level FlightAware ADS-B
Fri 12:36:11 AM 54.8092 29.3784 240° Southwest 432 497 38,000  Level FlightAware ADS-B
Fri 12:37:12 AM 54.7488 29.1974 240° Southwest 432 497 38,000  Level FlightAware ADS-B
Fri 12:38:12 AM 54.6886 29.0190 240° Southwest 431 496 38,000  Level FlightAware ADS-B
Fri 12:39:12 AM 54.6280 28.8405 240° Southwest 429 494 38,000  Level FlightAware ADS-B
Fri 12:40:12 AM 54.5674 28.6635 239° Southwest 428 493 38,000  Level FlightAware ADS-B
Fri 12:41:07 AM 54.5132 28.5064 239° Southwest 428 493 38,000  Level FlightAware ADS-B
Fri 12:42:12 AM 54.4516 28.3272 239° Southwest 428 493 38,000  Level FlightAware ADS-B
Fri 12:43:12 AM 54.3867 28.1399 239° Southwest 428 493 38,000  Level FlightAware ADS-B
Fri 12:44:12 AM 54.3261 27.9660 239° Southwest 428 493 38,000  Level FlightAware ADS-B
Fri 12:45:12 AM 54.2649 27.7919 239° Southwest 431 496 38,000  Level FlightAware ADS-B
Fri 12:46:11 AM 54.2033 27.6179 239° Southwest 429 494 38,000  Level FlightAware ADS-B
Fri 12:54:11 AM 53.6875 26.2938 241° Southwest 434 499 38,000  Level FlightAware ADS-B
Fri 12:54:49 AM 53.6422 26.2011 230° Southwest 434 499 38,000  Level FlightAware ADS-B (EPSY / SZY)
Fri 12:55:21 AM 53.6007 26.1167 230° Southwest 431 496 38,000  Level FlightAware ADS-B (EPSY / SZY)
Fri 12:55:57 AM 53.5546 26.0232 230° Southwest 430 495 38,000  Level FlightAware ADS-B (KCRQ)
Fri 12:56:28 AM 53.5158 25.9448 230° Southwest 429 494 38,000  Level FlightAware ADS-B (EPSY / SZY)
Fri 12:57:10 AM 53.4638 25.8397 230° Southwest 428 493 38,000  Level FlightAware ADS-B (EPSY / SZY)
Fri 12:57:42 AM 53.4232 25.7584 230° Southwest 428 493 38,000  Level FlightAware ADS-B (EPSY / SZY)
Fri 12:58:12 AM 53.3829 25.6778 230° Southwest 429 494 38,000  Level FlightAware ADS-B
Fri 12:58:42 AM 53.3468 25.6058 230° Southwest 429 494 38,000  Level FlightAware ADS-B (EPSY / SZY)
Fri 12:59:17 AM 53.3002 25.5132 230° Southwest 429 494 38,000  Level FlightAware ADS-B (KCRQ)
Fri 12:59:57 AM 53.2495 25.4129 230° Southwest 428 493 38,000  Level FlightAware ADS-B (KCRQ)
Fri 01:00:37 AM 53.1985 25.3123 230° Southwest 426 490 38,000  Level FlightAware ADS-B (EPSY / SZY)
Fri 01:01:12 AM 53.1544 25.2255 230° Southwest 424 488 38,000  Level FlightAware ADS-B
Fri 01:01:42 AM 53.1169 25.1520 230° Southwest 424 488 38,000  Level FlightAware ADS-B (EPSY / SZY)
Fri 01:02:12 AM 53.0774 25.0747 230° Southwest 424 488 38,000  Level FlightAware ADS-B
Fri 01:02:42 AM 53.0422 25.0061 230° Southwest 423 487 38,000  Level FlightAware ADS-B (EPSY / SZY)
Fri 01:03:12 AM 53.0040 24.9318 229° Southwest 422 486 38,000  Level FlightAware ADS-B
Fri 01:03:50 AM 52.9545 24.8360 229° Southwest 423 487 38,000  Level FlightAware ADS-B (EPSY / SZY)
Fri 01:04:22 AM 52.9152 24.7604 229° Southwest 425 489 38,000  Level FlightAware ADS-B (EPSY / SZY)
Fri 01:04:54 AM 52.8717 24.6767 229° Southwest 422 486 38,000  Level FlightAware ADS-B (KCRQ)
Fri 01:05:37 AM 52.8173 24.5728 229° Southwest 423 487 38,000  Level FlightAware ADS-B (KCRQ)
Fri 01:06:12 AM 52.7711 24.4849 229° Southwest 426 490 38,000  Level FlightAware ADS-B
Fri 01:06:57 AM 52.7137 24.3758 229° Southwest 423 487 38,000  Level FlightAware ADS-B (KCRQ)
Fri 01:07:37 AM 52.6632 24.2799 229° Southwest 422 486 38,000  Level FlightAware ADS-B (KCRQ)
Fri 01:08:17 AM 52.6119 24.1833 229° Southwest 422 486 38,000  Level FlightAware ADS-B (KCRQ)
Fri 01:08:57 AM 52.5602 24.0861 229° Southwest 420 483 38,000  Level FlightAware ADS-B (KCRQ)
Fri 01:09:37 AM 52.5099 23.9919 229° Southwest 420 483 38,000  Level FlightAware ADS-B (KCRQ)
Fri 01:09:57 AM 52.4858 23.9471 229° Southwest 416 479 38,000  Level FlightAware ADS-B
Fri 01:10:36 AM 52.4330 23.8490 229° Southwest 418 481 38,000  Level FlightAware ADS-B (KCRQ)
Fri 01:11:11 AM 52.3902 23.7697 228° Southwest 416 479 38,000  Level FlightAware ADS-B
Fri 01:11:31 AM 52.3662 23.7254 228° Southwest 415 478 38,000  Level FlightAware ADS-B
Fri 01:12:11 AM 52.3132 23.6279 228° Southwest 415 478 38,000  Level FlightAware ADS-B
Fri 01:12:54 AM 52.2593 23.5292 228° Southwest 418 481 38,000  Level FlightAware ADS-B (EPSY / SZY)
Fri 01:13:17 AM 52.2309 23.4708 232° Southwest 414 476 38,000  Level FlightAware ADS-B
Fri 01:13:55 AM 52.1893 23.3765 234° Southwest 414 476 38,000  Level FlightAware ADS-B (EPSY / SZY)
Fri 01:14:37 AM 52.1409 23.2645 235° Southwest 415 478 38,000  Level FlightAware ADS-B (KCRQ)
Fri 01:15:07 AM 52.1102 23.1953 234° Southwest 416 479 38,000  Level FlightAware ADS-B (EPSY / SZY)
Fri 01:15:37 AM 52.0741 23.1143 234° Southwest 418 481 38,000  Level FlightAware ADS-B (KCRQ)
Fri 01:16:16 AM 52.0301 23.0166 234° Southwest 415 478 38,000  Level FlightAware ADS-B (KCRQ)
Fri 01:16:49 AM 51.9926 22.9333 234° Southwest 420 483 38,000  Level FlightAware ADS-B
Fri 01:17:30 AM 51.9464 22.8312 234° Southwest 422 486 38,000  Level FlightAware ADS-B
Fri 01:17:56 AM 51.9147 22.7617 234° Southwest 422 486 38,000  Level FlightAware ADS-B (KCRQ)
Fri 01:18:27 AM 51.8799 22.6851 234° Southwest 428 493 38,000  Level FlightAware ADS-B (EPSY / SZY)
Fri 01:18:57 AM 51.8424 22.6028 234° Southwest 424 488 38,000  Level FlightAware ADS-B (KCRQ)
Fri 01:19:07 AM 51.8339 22.5843 233° Southwest 427 491 38,000  Level FlightAware ADS-B
Fri 01:19:37 AM 51.7958 22.5012 233° Southwest 422 486 38,000  Level FlightAware ADS-B (KCRQ)
Fri 01:20:11 AM 51.7583 22.4197 233° Southwest 423 487 38,000  Level FlightAware ADS-B
Fri 01:20:53 AM 51.7080 22.3109 233° Southwest 422 486 38,000  Level FlightAware ADS-B
Fri 01:21:29 AM 51.6653 22.2187 233° Southwest 422 486 38,000  Level FlightAware ADS-B (ZSAM / XMN)
Fri 01:22:14 AM 51.6141 22.1083 233° Southwest 420 483 38,000  Level FlightAware ADS-B
Fri 01:22:56 AM 51.5647 22.0026 233° Southwest 423 487 38,000  Level FlightAware ADS-B (EPSY / SZY)
Fri 01:23:27 AM 51.5591 21.9907 233° Southwest 423 487 38,000  Level FlightAware ADS-B (ZSAM / XMN)
Fri 01:24:00 AM 51.4901 21.8436 233° Southwest 420 483 38,000  Level FlightAware ADS-B
Fri 01:24:18 AM 51.4701 21.8012 233° Southwest 420 483 38,000  Level FlightAware ADS-B
Fri 01:24:39 AM 51.4449 21.7478 233° Southwest 423 487 38,000  Level FlightAware ADS-B
Fri 01:25:16 AM 51.3978 21.6486 233° Southwest 427 491 38,000  Level FlightAware ADS-B (KCRQ)
Fri 01:25:19 AM 51.3973 21.6476 234° Southwest 424 488 38,000  Level FlightAware ADS-B
Fri 01:25:56 AM 51.3524 21.5531 233° Southwest 429 494 38,000  Level FlightAware ADS-B (EPSY / SZY)
Fri 01:26:27 AM 51.3145 21.4738 233° Southwest 426 490 38,000  Level FlightAware ADS-B (ZSAM / XMN)
Fri 01:26:57 AM 51.2777 21.3968 233° Southwest 423 487 38,000  Level FlightAware ADS-B (KCRQ)
Fri 01:27:28 AM 51.2422 21.3227 233° Southwest 422 486 38,000  Level FlightAware ADS-B (EPSY / SZY)
Fri 01:28:04 AM 51.1989 21.2330 232° Southwest 424 488 38,000  Level FlightAware ADS-B (EPSY / SZY)
Fri 01:28:24 AM 51.1758 21.1850 232° Southwest 423 487 38,000  Level FlightAware ADS-B
Fri 01:28:57 AM 51.1348 21.1001 232° Southwest 424 488 38,000  Level FlightAware ADS-B (KCRQ)
Fri 01:29:29 AM 51.0986 21.0257 232° Southwest 424 488 38,000  Level FlightAware ADS-B
Fri 01:30:04 AM 51.0585 20.9434 232° Southwest 429 494 38,000  Level FlightAware ADS-B (EPSY / SZY)
Fri 01:30:36 AM 51.0161 20.8567 232° Southwest 432 497 38,000  Level FlightAware ADS-B (EPSY / SZY)
Fri 01:31:13 AM 50.9712 20.7651 232° Southwest 428 493 38,000  Level FlightAware ADS-B
Fri 01:31:36 AM 50.9420 20.7057 232° Southwest 425 489 38,000  Level FlightAware ADS-B (KCRQ)
Fri 01:31:57 AM 50.9171 20.6553 232° Southwest 424 488 38,000  Level FlightAware ADS-B (KCRQ)
Fri 01:32:17 AM 50.8931 20.6065 232° Southwest 423 487 38,000  Level FlightAware ADS-B (KCRQ)
Fri 01:32:38 AM 50.8695 20.5588 232° Southwest 428 493 38,000  Level FlightAware ADS-B (ZSAM / XMN)
Fri 01:32:58 AM 50.8447 20.5087 232° Southwest 427 491 38,000  Level FlightAware ADS-B (ZSAM / XMN)
Fri 01:33:17 AM 50.8192 20.4574 232° Southwest 421 484 38,000  Level FlightAware ADS-B (KCRQ)
Fri 01:33:37 AM 50.7957 20.4101 232° Southwest 420 483 38,000  Level FlightAware ADS-B (KCRQ)
Fri 01:34:08 AM 50.7577 20.3338 232° Southwest 424 488 38,000  Level FlightAware ADS-B (ZSAM / XMN)
Fri 01:34:37 AM 50.7221 20.2626 232° Southwest 420 483 38,000  Level FlightAware ADS-B (KCRQ)
Fri 01:34:57 AM 50.6992 20.2168 232° Southwest 426 490 38,000  Level FlightAware ADS-B
Fri 01:35:17 AM 50.6749 20.1685 232° Southwest 425 489 38,000  Level FlightAware ADS-B
Fri 01:35:37 AM 50.6502 20.1194 232° Southwest 425 489 38,000  Level FlightAware ADS-B
Fri 01:35:57 AM 50.6256 20.0705 231° Southwest 423 487 38,000  Level FlightAware ADS-B
Fri 01:36:18 AM 50.6001 20.0204 231° Southwest 423 487 38,000  Level FlightAware ADS-B
Fri 01:36:57 AM 50.5519 19.9252 231° Southwest 421 484 38,000  Level FlightAware ADS-B (KCRQ)
Fri 01:37:28 AM 50.5237 19.8694 231° Southwest 421 484 38,000  Level FlightAware ADS-B (ZSAM / XMN)
Fri 01:38:07 AM 50.4681 19.7605 231° Southwest 417 480 38,000  Level FlightAware ADS-B
Fri 01:38:37 AM 50.4303 19.6864 231° Southwest 416 479 38,000 -100 Level FlightAware ADS-B (KCRQ)
Fri 01:39:07 AM 50.3960 19.6194 231° Southwest 420 483 37,900 100 Descending FlightAware ADS-B
Fri 01:39:37 AM 50.3594 19.5481 231° Southwest 393 452 38,100 118 Climbing FlightAware ADS-B (KCRQ)
Fri 01:39:58 AM 50.3355 19.5018 231° Southwest 396 456 38,000 -115 Descending FlightAware ADS-B (ZSAM / XMN)
Fri 01:40:29 AM 50.3004 19.4339 231° Southwest 398 458 38,000  Level FlightAware ADS-B (ZSAM / XMN)
Fri 01:41:07 AM 50.2555 19.3471 231° Southwest 403 464 38,000  Level FlightAware ADS-B (ZSAM / XMN)
Fri 01:41:37 AM 50.2205 19.2797 231° Southwest 405 466 38,000  Level FlightAware ADS-B (KCRQ)
Fri 01:42:08 AM 50.1843 19.2103 231° Southwest 409 471 38,000  Level FlightAware ADS-B (ZSAM / XMN)
Fri 01:42:48 AM 50.1364 19.1187 231° Southwest 414 476 38,000  Level FlightAware ADS-B (ZSAM / XMN)
Fri 01:43:25 AM 50.0913 19.0327 231° Southwest 412 474 38,000  Level FlightAware ADS-B (ZSAM / XMN)
Fri 01:43:56 AM 50.0538 18.9612 231° Southwest 412 474 38,000  Level FlightAware ADS-B
Fri 01:44:26 AM 50.0262 18.9089 231° Southwest 415 478 38,000  Level FlightAware ADS-B (ZSAM / XMN)
Fri 01:45:00 AM 49.9749 18.8120 231° Southwest 418 481 38,000  Level FlightAware ADS-B
Fri 01:45:31 AM 49.9406 18.7472 231° Southwest 419 482 38,000  Level FlightAware ADS-B (ZSAM / XMN)
Fri 01:46:10 AM 49.8918 18.6553 230° Southwest 417 480 38,000  Level FlightAware ADS-B (ZSAM / XMN)
Fri 01:46:40 AM 49.8548 18.5860 230° Southwest 422 486 38,000  Level FlightAware ADS-B (ZSAM / XMN)
Fri 01:47:22 AM 49.8037 18.4855 232° Southwest 424 488 38,000  Level FlightAware ADS-B
Fri 01:48:03 AM 49.7545 18.3841 233° Southwest 418 481 38,000  Level FlightAware ADS-B
Fri 01:48:44 AM 49.7062 18.2867 233° Southwest 419 482 38,000  Level FlightAware ADS-B
Fri 01:49:25 AM 49.6566 18.1872 232° Southwest 423 487 38,000  Level FlightAware ADS-B
Fri 01:50:06 AM 49.6098 18.0938 232° Southwest 426 490 38,000  Level FlightAware ADS-B
Fri 01:50:47 AM 49.5646 18.0041 232° Southwest 422 486 38,000  Level FlightAware ADS-B
Fri 01:51:30 AM 49.5098 17.8952 232° Southwest 424 488 38,000  Level FlightAware ADS-B
Fri 01:52:01 AM 49.4692 17.8150 232° Southwest 426 490 38,000  Level FlightAware ADS-B
Fri 01:52:42 AM 49.4412 17.7597 232° Southwest 429 494 38,000  Level FlightAware ADS-B
Fri 01:53:50 AM 49.3380 17.5571 232° Southwest 425 489 38,000  Level FlightAware ADS-B (ZSAM / XMN)
Fri 01:54:29 AM 49.2875 17.4684 229° Southwest 430 495 38,000  Level FlightAware ADS-B
Fri 01:55:09 AM 49.2364 17.3804 228° Southwest 428 493 38,000  Level FlightAware ADS-B (ZSAM / XMN)
Fri 01:55:48 AM 49.1933 17.3066 228° Southwest 425 489 38,000  Level FlightAware ADS-B (ZSAM / XMN)
Fri 01:56:34 AM 49.1289 17.1970 228° Southwest 429 494 38,000  Level FlightAware ADS-B (ZSAM / XMN)
Fri 01:57:19 AM 49.0648 17.0887 228° Southwest 424 488 38,000  Level FlightAware ADS-B
Fri 01:57:57 AM 49.0144 17.0038 228° Southwest 428 493 38,000  Level FlightAware ADS-B (LHBP / BUD)
Fri 01:58:38 AM 48.9627 16.9171 228° Southwest 428 493 38,000  Level FlightAware ADS-B (ZSAM / XMN)
Fri 01:59:23 AM 48.9000 16.8121 228° Southwest 426 490 38,000  Level FlightAware ADS-B
Fri 02:00:08 AM 48.8393 16.7109 228° Southwest 434 499 38,000  Level FlightAware ADS-B (ZSAM / XMN)
Fri 02:00:41 AM 48.7978 16.6421 228° Southwest 421 484 38,000  Level FlightAware ADS-B (ZSAM / XMN)
Fri 02:01:21 AM 48.7431 16.5516 228° Southwest 425 489 38,000  Level FlightAware ADS-B (ZSAM / XMN)
Fri 02:01:54 AM 48.7021 16.4772 230° Southwest 424 488 38,000  Level FlightAware ADS-B (ZSAM / XMN)
Fri 02:02:28 AM 48.6671 16.3930 238° Southwest 426 490 38,000  Level FlightAware ADS-B (ZSAM / XMN)
Fri 02:03:40 AM 48.5925 16.2158 238° Southwest 403 464 38,000  Level FlightAware ADS-B (ZSAM / XMN)
Fri 02:04:16 AM 48.5571 16.1320 237° Southwest 408 470 38,000  Level FlightAware ADS-B (EDDM / MUC)
Fri 02:04:55 AM 48.5339 16.0776 237° Southwest 409 471 38,000  Level FlightAware ADS-B (EDDM / MUC)
Fri 02:05:39 AM 48.4753 15.9395 237° Southwest 408 470 38,000  Level FlightAware ADS-B (EDDM / MUC)
Fri 02:06:09 AM 48.4417 15.8610 237° Southwest 407 468 38,000  Level FlightAware ADS-B (EDDM / MUC)
Fri 02:07:16 AM 48.3739 15.7031 237° Southwest 412 474 38,000  Level FlightAware ADS-B (EDDM / MUC)
Fri 02:08:23 AM 48.3057 15.5454 237° Southwest 412 474 38,000  Level FlightAware ADS-B (EDDM / MUC)
Fri 02:09:19 AM 48.2485 15.4137 237° Southwest 421 484 38,000  Level FlightAware ADS-B (EDDM / MUC)
Fri 02:10:00 AM 48.2020 15.3074 237° Southwest 423 487 38,000  Level FlightAware ADS-B (EDDM / MUC)
Fri 02:10:47 AM 48.1522 15.1936 237° Southwest 421 484 38,000  Level FlightAware ADS-B (EDDM / MUC)
Fri 02:11:34 AM 48.1051 15.0862 237° Southwest 418 481 38,000  Level FlightAware ADS-B (EDDM / MUC)
Fri 02:12:41 AM 48.0310 14.9187 237° Southwest 422 486 38,000  Level FlightAware ADS-B (EDDM / MUC)
Fri 02:13:13 AM 47.9966 14.8413 236° Southwest 425 489 38,000  Level FlightAware ADS-B (ETSE)
Fri 02:13:44 AM 47.9635 14.7670 236° Southwest 424 488 38,000  Level FlightAware ADS-B (EDDM / MUC)
Fri 02:14:26 AM 47.9161 14.6609 236° Southwest 423 487 38,000  Level FlightAware ADS-B (EDDM / MUC)
Fri 02:15:09 AM 47.8728 14.5647 236° Southwest 415 478 38,000  Level FlightAware ADS-B (EDDM / MUC)
Fri 02:15:51 AM 47.8250 14.4586 236° Southwest 416 479 38,000  Level FlightAware ADS-B (EDDM / MUC)
Fri 02:16:32 AM 47.7803 14.3593 236° Southwest 427 491 38,000  Level FlightAware ADS-B (EDDM / MUC)
Fri 02:17:10 AM 47.7450 14.2817 236° Southwest 412 474 38,000  Level FlightAware ADS-B (ETSE)
Fri 02:17:54 AM 47.6960 14.1738 236° Southwest 413 475 38,000  Level FlightAware ADS-B (ETSE)
Fri 02:18:25 AM 47.6596 14.0937 236° Southwest 428 493 38,000 76 Level FlightAware ADS-B (EDDM / MUC)
Fri 02:19:13 AM 47.6071 13.9794 236° Southwest 419 482 38,100  Climbing FlightAware ADS-B (EDDM / MUC)
Fri 02:19:44 AM 47.5735 13.9064 236° Southwest 405 466 38,000 -74 Descending FlightAware ADS-B (ETSE)
Fri 02:20:34 AM 47.5220 13.7948 236° Southwest 416 479 38,000  Level FlightAware ADS-B (ETSE)
Fri 02:21:40 AM 47.4507 13.6411 236° Southwest 425 489 38,000  Level FlightAware ADS-B (EDDM / MUC)
Fri 02:22:14 AM 47.4121 13.5581 235° Southwest 426 490 38,000  Level FlightAware ADS-B (ETSE)
Fri 02:22:44 AM 47.3754 13.4795 235° Southwest 426 490 38,000  Level FlightAware ADS-B (EDDM / MUC)
Fri 02:23:23 AM 47.3325 13.3880 235° Southwest 426 490 38,000  Level FlightAware ADS-B (EDDM / MUC)
Fri 02:24:13 AM 47.2756 13.2669 235° Southwest 428 493 38,000  Level FlightAware ADS-B (ETSE)
Fri 02:24:45 AM 47.2414 13.1943 235° Southwest 428 493 38,000  Level FlightAware ADS-B (EDDM / MUC)
Fri 02:25:30 AM 47.1932 13.0925 235° Southwest 429 494 38,000  Level FlightAware ADS-B (EDDM / MUC)
Fri 02:26:13 AM 47.1407 12.9821 235° Southwest 428 493 38,000  Level FlightAware ADS-B (EDDM / MUC)
Fri 02:26:54 AM 47.0936 12.8831 235° Southwest 430 495 38,000 -551 Level FlightAware ADS-B (ETSE)
Fri 02:27:51 AM 47.0264 12.7427 235° Southwest 446 513 37,100 -990 Descending FlightAware ADS-B (EDDM / MUC)
Fri 02:28:31 AM 46.9823 12.6511 235° Southwest 431 496 36,400 -960 Descending FlightAware ADS-B (ETSE)
Fri 02:29:06 AM 46.9417 12.5668 235° Southwest 411 473 35,900 -896 Descending FlightAware ADS-B (EDDM / MUC)
Fri 02:29:38 AM 46.9067 12.4943 235° Southwest 408 470 35,400 -844 Descending FlightAware ADS-B (EDDM / MUC)
Fri 02:30:10 AM 46.8722 12.4234 235° Southwest 404 465 35,000 -387 Descending FlightAware ADS-B (ETSE)
Fri 02:30:40 AM 46.8439 12.3502 240° Southwest 407 468 35,000  Level FlightAware ADS-B (EDDM / MUC)
Fri 02:31:11 AM 46.8186 12.2764 244° Southwest 410 472 35,000  Level FlightAware ADS-B (ETSE)
Fri 02:31:42 AM 46.7907 12.1956 243° Southwest 410 472 35,000  Level FlightAware ADS-B (EDDM / MUC)
Fri 02:32:24 AM 46.7559 12.0948 243° Southwest 407 468 35,000  Level FlightAware ADS-B (EDDM / MUC)
Fri 02:33:13 AM 46.7149 11.9770 243° Southwest 411 473 35,000  Level FlightAware ADS-B (EDDM / MUC)
Fri 02:33:49 AM 46.6826 11.8847 243° Southwest 412 474 35,000  Level FlightAware ADS-B (EDDM / MUC)
Fri 02:34:26 AM 46.6520 11.7973 243° Southwest 414 476 35,000  Level FlightAware ADS-B (ETSE)
Fri 02:35:12 AM 46.6128 11.6856 243° Southwest 416 479 35,000  Level FlightAware ADS-B (EDDM / MUC)
Fri 02:35:56 AM 46.5753 11.5794 243° Southwest 417 480 35,000  Level FlightAware ADS-B (ETSE)
Fri 02:36:38 AM 46.5354 11.4668 243° Southwest 416 479 35,000  Level FlightAware ADS-B (EDDM / MUC)
Fri 02:37:13 AM 46.5073 11.3878 243° Southwest 415 478 35,000  Level FlightAware ADS-B (ETSE)
Fri 02:37:53 AM 46.4704 11.2843 243° Southwest 415 478 35,000  Level FlightAware ADS-B (ETSE)
Fri 02:38:23 AM 46.4436 11.2097 243° Southwest 414 476 35,000  Level FlightAware ADS-B (EDDM / MUC)
Fri 02:39:07 AM 46.4083 11.1112 243° Southwest 412 474 35,000  Level FlightAware ADS-B (EDDM / MUC)
Fri 02:40:06 AM 46.3524 10.9565 242° Southwest 411 473 35,000 -980 Level FlightAware ADS-B (EDDM / MUC)
Fri 02:40:45 AM 46.3178 10.8613 242° Southwest 420 483 33,400 -2,313 Descending FlightAware ADS-B (EDDM / MUC)
Fri 02:41:29 AM 46.2786 10.7537 242° Southwest 411 473 31,800 -1,814 Descending FlightAware ADS-B (EDDM / MUC)
Fri 02:42:11 AM 46.2432 10.6563 242° Southwest 387 445 30,800 -1,829 Descending FlightAware ADS-B (EDDM / MUC)
Fri 02:42:51 AM 46.2104 10.5674 242° Southwest 378 435 29,300 -1,440 Descending FlightAware ADS-B (EDDM / MUC)
Fri 02:43:26 AM 46.1846 10.4971 242° Southwest 373 429 29,000 -217 Descending FlightAware ADS-B (EDDM / MUC)
Fri 02:44:14 AM 46.1425 10.3806 243° Southwest 382 440 29,000 -667 Level FlightAware ADS-B (ETSE)
Fri 02:44:56 AM 46.1092 10.2859 243° Southwest 377 434 28,000 -1,793 Descending FlightAware ADS-B (EDDM / MUC)
Fri 02:45:41 AM 46.1283 10.3398 63° Northeast 371 427 26,400 -2,133 Descending FlightAware ADS-B (ETSE)
Fri 02:48:00 AM 46.0196 9.9789 247° West  Level Estimated
Fri 02:49:00 AM 45.9723 9.8236 246° West  Level Estimated
Fri 02:50:00 AM 45.9248 9.6685 246° West  Level Estimated
Fri 02:51:00 AM 45.8771 9.5137 246° West  Level Estimated
Fri 02:52:00 AM 45.8292 9.3591 246° West  Level Estimated
Fri 02:53:00 AM 45.7811 9.2049 246° West  Level Estimated
Fri 02:54:00 AM 45.7328 9.0509 246° West  Level Estimated

Login

Don't have an account? Register now (free) for customized features, flight alerts, and more!